createdAt,value
2018-09-27T00:01:41.589Z,6.90
2018-09-27T00:04:09.733Z,6.90
2018-09-27T00:06:37.885Z,6.90
2018-09-27T00:09:06.167Z,6.90
2018-09-27T00:11:34.338Z,6.90
2018-09-27T00:14:02.493Z,6.90
2018-09-27T00:16:30.646Z,7.00
2018-09-27T00:18:58.819Z,7.00
2018-09-27T00:21:26.967Z,6.90
2018-09-27T00:23:55.121Z,6.90
2018-09-27T00:26:23.258Z,6.80
2018-09-27T00:28:51.425Z,6.80
2018-09-27T00:31:19.583Z,6.80
2018-09-27T00:33:47.723Z,6.80
2018-09-27T00:36:15.878Z,6.80
2018-09-27T00:38:44.049Z,6.90
2018-09-27T00:41:12.204Z,6.70
2018-09-27T00:43:40.353Z,6.70
2018-09-27T00:46:08.513Z,6.70
2018-09-27T00:48:36.651Z,6.70
2018-09-27T00:51:04.797Z,6.70
2018-09-27T00:53:32.970Z,6.60
2018-09-27T00:56:01.130Z,6.70
2018-09-27T00:58:29.283Z,6.60
2018-09-27T01:00:57.439Z,6.70
2018-09-27T01:03:25.564Z,6.60
2018-09-27T01:05:53.721Z,6.60
2018-09-27T01:08:21.872Z,6.60
2018-09-27T01:10:50.024Z,6.60
2018-09-27T01:13:18.170Z,6.60
2018-09-27T01:15:46.326Z,6.50
2018-09-27T01:18:14.470Z,6.60
2018-09-27T01:20:42.707Z,6.50
2018-09-27T01:23:10.864Z,6.50
2018-09-27T01:25:39.020Z,6.50
2018-09-27T01:28:07.153Z,6.50
2018-09-27T01:30:35.297Z,6.60
2018-09-27T01:33:03.462Z,6.70
2018-09-27T01:35:31.612Z,6.60
2018-09-27T01:37:59.760Z,6.60
2018-09-27T01:40:27.921Z,6.60
2018-09-27T01:42:56.050Z,6.60
2018-09-27T01:45:24.205Z,6.50
2018-09-27T01:47:52.338Z,6.50
2018-09-27T01:50:20.495Z,6.40
2018-09-27T01:52:48.620Z,6.40
2018-09-27T01:55:16.783Z,6.40
2018-09-27T01:57:44.950Z,6.50
2018-09-27T02:00:13.102Z,6.60
2018-09-27T02:02:41.254Z,6.60
2018-09-27T02:05:09.413Z,6.60
2018-09-27T02:07:37.577Z,6.60
2018-09-27T02:10:05.813Z,6.60
2018-09-27T02:12:33.965Z,6.50
2018-09-27T02:15:02.105Z,6.50
2018-09-27T02:17:30.261Z,6.50
2018-09-27T02:19:58.408Z,6.50
2018-09-27T02:22:26.562Z,6.50
2018-09-27T02:24:54.697Z,6.50
2018-09-27T02:27:22.862Z,6.50
2018-09-27T02:29:51.014Z,6.50
2018-09-27T02:32:19.164Z,6.50
2018-09-27T02:34:47.317Z,6.50
2018-09-27T02:37:15.474Z,6.60
2018-09-27T02:39:43.602Z,6.50
2018-09-27T02:42:11.749Z,6.40
2018-09-27T02:44:39.873Z,6.40
2018-09-27T02:47:08.043Z,6.40
2018-09-27T02:49:36.177Z,6.40
2018-09-27T02:52:04.324Z,6.50
2018-09-27T02:54:32.463Z,6.50
2018-09-27T02:57:00.626Z,6.50
2018-09-27T02:59:28.778Z,6.40
2018-09-27T03:01:56.933Z,6.30
2018-09-27T03:04:25.089Z,6.20
2018-09-27T03:06:53.253Z,6.20
2018-09-27T03:09:21.373Z,6.20
2018-09-27T03:11:49.518Z,6.20
2018-09-27T03:14:17.678Z,6.20
2018-09-27T03:16:45.817Z,6.20
2018-09-27T03:19:13.965Z,6.20
2018-09-27T03:21:42.097Z,6.30
2018-09-27T03:24:10.239Z,6.20
2018-09-27T03:26:38.378Z,6.30
2018-09-27T03:29:06.513Z,6.30
2018-09-27T03:31:34.701Z,6.20
2018-09-27T03:34:02.905Z,6.20
2018-09-27T03:36:31.030Z,6.20
2018-09-27T03:38:59.220Z,6.20
2018-09-27T03:41:27.342Z,6.10
2018-09-27T03:43:55.498Z,6.00
2018-09-27T03:46:23.645Z,6.00
2018-09-27T03:48:51.798Z,6.00
2018-09-27T03:51:19.930Z,6.00
2018-09-27T03:53:48.068Z,6.00
2018-09-27T03:56:16.214Z,6.00
2018-09-27T03:58:44.363Z,6.00
2018-09-27T04:01:12.502Z,5.90
2018-09-27T04:03:40.681Z,5.90
2018-09-27T04:06:08.814Z,5.90
2018-09-27T04:08:36.973Z,6.00
2018-09-27T04:11:05.109Z,6.00
2018-09-27T04:13:33.281Z,5.90
2018-09-27T04:16:01.407Z,5.90
2018-09-27T04:18:29.566Z,5.90
2018-09-27T04:20:57.693Z,5.90
2018-09-27T04:23:25.833Z,5.90
2018-09-27T04:25:53.975Z,6.00
2018-09-27T04:28:22.642Z,6.00
2018-09-27T04:30:50.990Z,5.90
2018-09-27T04:33:19.114Z,5.90
2018-09-27T04:35:47.269Z,5.80
2018-09-27T04:38:15.422Z,5.80
2018-09-27T04:40:44.456Z,5.80
2018-09-27T04:43:12.604Z,5.90
2018-09-27T04:45:40.761Z,5.80
2018-09-27T04:48:09.932Z,5.80
2018-09-27T04:50:38.093Z,5.80
2018-09-27T04:53:06.329Z,5.80
2018-09-27T04:55:34.487Z,5.80
2018-09-27T04:58:02.673Z,5.80
2018-09-27T05:00:30.901Z,5.70
2018-09-27T05:02:59.101Z,5.80
2018-09-27T05:05:27.942Z,5.70
2018-09-27T05:07:56.150Z,5.70
2018-09-27T05:10:24.358Z,5.70
2018-09-27T05:12:52.590Z,5.70
2018-09-27T05:15:20.800Z,5.60
2018-09-27T05:17:48.989Z,5.70
2018-09-27T05:20:17.344Z,5.70
2018-09-27T05:22:45.537Z,5.80
2018-09-27T05:25:13.770Z,5.80
2018-09-27T05:27:42.017Z,5.80
2018-09-27T05:30:10.249Z,5.80
2018-09-27T05:32:38.606Z,5.90
2018-09-27T05:35:06.846Z,5.80
2018-09-27T05:37:35.040Z,5.90
2018-09-27T05:40:03.316Z,5.90
2018-09-27T05:42:31.510Z,5.90
2018-09-27T05:44:59.718Z,5.90
2018-09-27T05:47:27.908Z,5.90
2018-09-27T05:49:56.156Z,5.90
2018-09-27T05:52:24.333Z,5.90
2018-09-27T05:54:52.525Z,5.90
2018-09-27T05:57:20.711Z,6.00
2018-09-27T05:59:48.916Z,6.10
2018-09-27T06:02:17.113Z,6.10
2018-09-27T06:04:45.308Z,6.20
2018-09-27T06:07:13.497Z,6.20
2018-09-27T06:09:41.706Z,6.30
2018-09-27T06:12:09.899Z,6.30
2018-09-27T06:14:38.107Z,6.40
2018-09-27T06:17:06.745Z,6.40
2018-09-27T06:19:35.053Z,6.50
2018-09-27T06:22:03.152Z,6.60
2018-09-27T06:24:31.345Z,6.80
2018-09-27T06:26:59.529Z,7.20
2018-09-27T06:29:27.705Z,7.70
2018-09-27T06:31:55.925Z,8.00
2018-09-27T06:34:24.420Z,8.00
2018-09-27T06:36:53.428Z,8.10
2018-09-27T06:39:21.633Z,8.30
2018-09-27T06:41:51.370Z,8.50
2018-09-27T06:44:19.790Z,8.50
2018-09-27T06:46:47.988Z,8.60
2018-09-27T06:49:16.200Z,8.70
2018-09-27T06:51:44.405Z,8.90
2018-09-27T06:54:12.576Z,9.00
2018-09-27T06:56:40.808Z,9.20
2018-09-27T06:59:08.977Z,9.40
2018-09-27T07:01:37.191Z,9.50
2018-09-27T07:04:05.375Z,9.90
2018-09-27T07:06:33.562Z,10.20
2018-09-27T07:09:01.748Z,10.30
2018-09-27T07:11:29.964Z,10.40
2018-09-27T07:13:58.157Z,10.40
2018-09-27T07:16:26.341Z,10.70
2018-09-27T07:18:54.569Z,10.80
2018-09-27T07:21:22.753Z,11.00
2018-09-27T07:23:50.960Z,11.10
2018-09-27T07:26:19.134Z,11.20
2018-09-27T07:28:47.342Z,11.30
2018-09-27T07:31:15.544Z,11.40
2018-09-27T07:33:43.757Z,11.60
2018-09-27T07:36:11.932Z,11.70
2018-09-27T07:38:40.182Z,11.90
2018-09-27T07:41:08.329Z,12.20
2018-09-27T07:43:36.526Z,12.40
2018-09-27T07:46:04.719Z,12.60
2018-09-27T07:48:32.979Z,12.80
2018-09-27T07:51:01.145Z,12.80
2018-09-27T07:53:29.353Z,13.00
2018-09-27T07:55:57.550Z,13.20
2018-09-27T07:58:25.760Z,13.60
2018-09-27T08:00:53.941Z,13.80
2018-09-27T08:03:22.142Z,14.20
2018-09-27T08:05:50.318Z,14.50
2018-09-27T08:08:18.508Z,15.00
2018-09-27T08:10:46.718Z,15.50
2018-09-27T08:13:14.909Z,15.40
2018-09-27T08:15:43.101Z,15.70
2018-09-27T08:18:11.281Z,16.30
2018-09-27T08:20:39.532Z,16.90
2018-09-27T08:23:07.681Z,17.00
2018-09-27T08:25:35.875Z,17.20
2018-09-27T08:28:04.187Z,17.50
2018-09-27T08:30:32.387Z,18.10
2018-09-27T08:33:00.599Z,17.90
2018-09-27T08:35:28.895Z,18.50
2018-09-27T08:37:57.097Z,18.20
2018-09-27T08:40:25.301Z,19.10
2018-09-27T08:42:53.556Z,19.30
2018-09-27T08:45:21.975Z,19.30
2018-09-27T08:47:49.996Z,19.40
2018-09-27T08:50:18.209Z,20.10
2018-09-27T08:52:46.397Z,20.10
2018-09-27T08:55:14.610Z,20.20
2018-09-27T08:57:42.909Z,20.70
2018-09-27T09:00:11.032Z,21.20
2018-09-27T09:02:39.221Z,21.00
2018-09-27T09:05:07.153Z,21.20
2018-09-27T09:07:35.415Z,21.80
2018-09-27T09:10:03.585Z,21.90
2018-09-27T09:12:31.794Z,22.10
2018-09-27T09:15:00.001Z,21.20
2018-09-27T09:17:28.260Z,22.10
2018-09-27T09:19:56.480Z,22.30
2018-09-27T09:22:24.698Z,22.60
2018-09-27T09:24:52.917Z,22.60
2018-09-27T09:27:21.129Z,22.40
2018-09-27T09:29:49.362Z,22.00
2018-09-27T09:32:17.566Z,22.00
2018-09-27T09:34:45.784Z,22.30
2018-09-27T09:37:14.005Z,22.80
2018-09-27T09:39:42.226Z,23.30
2018-09-27T09:42:10.430Z,24.10
2018-09-27T09:44:38.728Z,24.10
2018-09-27T09:47:06.972Z,24.30
2018-09-27T09:49:35.207Z,23.30
2018-09-27T09:52:03.411Z,23.80
2018-09-27T09:54:32.176Z,24.60
2018-09-27T09:57:00.365Z,24.60
2018-09-27T09:59:28.587Z,24.60
2018-09-27T10:01:56.782Z,24.60
2018-09-27T10:04:24.982Z,25.10
2018-09-27T10:06:53.226Z,25.40
2018-09-27T10:09:21.421Z,25.00
2018-09-27T10:11:50.106Z,23.70
2018-09-27T10:14:18.553Z,25.60
2018-09-27T10:16:47.003Z,26.10
2018-09-27T10:19:15.198Z,26.10
2018-09-27T10:21:43.425Z,25.80
2018-09-27T10:24:11.609Z,23.80
2018-09-27T10:26:41.369Z,25.60
2018-09-27T10:29:26.069Z,25.30
2018-09-27T10:31:54.278Z,25.50
2018-09-27T10:34:22.476Z,25.30
2018-09-27T10:36:50.695Z,25.50
2018-09-27T10:39:18.940Z,26.10
2018-09-27T10:41:47.093Z,27.20
2018-09-27T10:44:15.230Z,27.00
2018-09-27T10:46:43.388Z,26.60
2018-09-27T10:49:11.543Z,26.50
2018-09-27T10:51:39.746Z,26.70
2018-09-27T10:54:07.921Z,26.60
2018-09-27T10:56:36.082Z,26.90
2018-09-27T10:59:04.223Z,26.70
2018-09-27T11:01:32.414Z,26.80
2018-09-27T11:04:00.633Z,27.40
2018-09-27T11:06:28.756Z,27.00
2018-09-27T11:08:57.024Z,26.10
2018-09-27T11:11:25.237Z,26.50
2018-09-27T11:13:53.402Z,27.00
2018-09-27T11:16:21.585Z,27.30
2018-09-27T11:18:49.740Z,27.20
2018-09-27T11:21:17.917Z,27.10
2018-09-27T11:23:46.065Z,27.00
2018-09-27T11:26:14.209Z,27.30
2018-09-27T11:28:47.879Z,26.60
2018-09-27T11:31:21.291Z,26.40
2018-09-27T11:33:49.441Z,27.50
2018-09-27T11:36:17.616Z,27.40
2018-09-27T11:38:45.771Z,27.30
2018-09-27T11:41:13.948Z,27.80
2018-09-27T11:43:42.112Z,27.80
2018-09-27T11:46:10.309Z,27.60
2018-09-27T11:48:38.473Z,28.00
2018-09-27T11:51:06.653Z,28.10
2018-09-27T11:53:34.829Z,28.40
2018-09-27T11:56:02.988Z,28.40
2018-09-27T11:58:31.182Z,29.00
2018-09-27T12:00:59.395Z,28.10
2018-09-27T12:03:27.545Z,27.10
2018-09-27T12:05:55.731Z,26.60
2018-09-27T12:08:23.879Z,27.10
2018-09-27T12:10:52.486Z,26.80
2018-09-27T12:13:20.747Z,27.10
2018-09-27T12:15:54.557Z,27.20
2018-09-27T12:18:28.675Z,28.00
2018-09-27T12:20:57.809Z,27.70
2018-09-27T12:23:25.983Z,28.10
2018-09-27T12:25:54.156Z,27.40
2018-09-27T12:28:22.325Z,28.80
2018-09-27T12:30:50.520Z,27.70
2018-09-27T12:33:19.407Z,29.10
2018-09-27T12:35:47.598Z,28.60
2018-09-27T12:38:15.837Z,27.70
2018-09-27T12:40:44.238Z,28.40
2018-09-27T12:43:12.334Z,28.20
2018-09-27T12:45:40.562Z,28.00
2018-09-27T12:48:08.672Z,28.40
2018-09-27T12:50:37.658Z,27.90
2018-09-27T12:53:05.962Z,28.40
2018-09-27T12:55:34.436Z,27.90
2018-09-27T12:58:02.593Z,26.10
2018-09-27T13:00:31.242Z,26.70
2018-09-27T13:02:59.597Z,27.80
2018-09-27T13:05:27.934Z,27.80
2018-09-27T13:07:56.115Z,27.70
2018-09-27T13:10:24.917Z,27.30
2018-09-27T13:12:53.170Z,27.20
2018-09-27T13:15:21.304Z,27.00
2018-09-27T13:17:49.447Z,27.30
2018-09-27T13:20:17.653Z,27.00
2018-09-27T13:22:45.770Z,27.30
2018-09-27T13:25:13.929Z,27.10
2018-09-27T13:27:42.091Z,27.20
2018-09-27T13:30:10.291Z,27.10
2018-09-27T13:32:38.467Z,26.70
2018-09-27T13:35:06.625Z,26.40
2018-09-27T13:37:34.840Z,26.60
2018-09-27T13:40:03.083Z,26.70
2018-09-27T13:42:31.475Z,26.90
2018-09-27T13:44:59.690Z,27.00
2018-09-27T13:47:27.799Z,26.80
2018-09-27T13:49:55.985Z,26.80
2018-09-27T13:52:24.136Z,26.70
2018-09-27T13:54:52.351Z,26.70
2018-09-27T13:57:20.509Z,27.00
2018-09-27T13:59:48.647Z,26.80
2018-09-27T14:02:16.793Z,26.90
2018-09-27T14:04:45.093Z,26.70
2018-09-27T14:07:13.684Z,26.80
2018-09-27T14:09:48.978Z,26.90
2018-09-27T14:12:18.673Z,26.50
2018-09-27T14:14:46.914Z,26.50
2018-09-27T14:17:15.205Z,26.20
2018-09-27T14:19:43.482Z,26.30
2018-09-27T14:22:11.658Z,25.60
2018-09-27T14:24:39.849Z,26.00
2018-09-27T14:27:08.054Z,26.00
2018-09-27T14:29:36.208Z,25.60
2018-09-27T14:32:04.419Z,25.80
2018-09-27T14:34:32.512Z,25.50
2018-09-27T14:37:00.658Z,25.50
2018-09-27T14:39:28.838Z,25.30
2018-09-27T14:41:57.021Z,25.50
2018-09-27T14:44:25.210Z,25.50
2018-09-27T14:46:53.580Z,25.50
2018-09-27T14:49:21.748Z,25.50
2018-09-27T14:51:50.040Z,25.30
2018-09-27T14:54:18.219Z,25.10
2018-09-27T14:56:46.394Z,25.10
2018-09-27T14:59:14.607Z,25.00
2018-09-27T15:01:42.756Z,25.00
2018-09-27T15:04:11.584Z,24.80
2018-09-27T15:06:40.081Z,24.70
2018-09-27T15:09:09.758Z,24.70
2018-09-27T15:11:37.885Z,24.50
2018-09-27T15:14:06.168Z,24.40
2018-09-27T15:16:34.433Z,24.40
2018-09-27T15:19:02.598Z,24.20
2018-09-27T15:21:30.780Z,24.20
2018-09-27T15:23:59.475Z,24.20
2018-09-27T15:26:27.645Z,24.10
2018-09-27T15:28:55.838Z,23.90
2018-09-27T15:31:23.990Z,23.80
2018-09-27T15:33:52.164Z,23.80
2018-09-27T15:36:20.476Z,23.80
2018-09-27T15:38:48.601Z,23.60
2018-09-27T15:41:16.782Z,23.50
2018-09-27T15:43:44.942Z,23.50
2018-09-27T15:46:13.102Z,23.50
2018-09-27T15:48:41.415Z,23.50
2018-09-27T15:51:09.690Z,23.40
2018-09-27T15:53:37.905Z,23.30
2018-09-27T15:56:06.112Z,23.20
2018-09-27T15:58:34.292Z,23.10
2018-09-27T16:01:02.445Z,23.00
2018-09-27T16:03:30.621Z,22.90
2018-09-27T16:05:58.794Z,22.70
2018-09-27T16:08:26.945Z,22.70
2018-09-27T16:10:55.090Z,22.80
2018-09-27T16:13:23.250Z,22.70
2018-09-27T16:15:51.424Z,22.50
2018-09-27T16:18:19.577Z,22.50
2018-09-27T16:20:47.745Z,22.50
2018-09-27T16:23:16.028Z,22.50
2018-09-27T16:25:44.400Z,22.60
2018-09-27T16:28:12.733Z,22.60
2018-09-27T16:30:41.034Z,22.60
2018-09-27T16:33:09.213Z,22.40
2018-09-27T16:35:37.445Z,22.00
2018-09-27T16:38:05.686Z,21.70
2018-09-27T16:40:33.852Z,21.40
2018-09-27T16:43:02.134Z,21.00
2018-09-27T16:45:30.513Z,20.40
2018-09-27T16:47:58.772Z,20.40
2018-09-27T16:50:26.934Z,20.10
2018-09-27T16:52:55.184Z,20.00
2018-09-27T16:55:23.364Z,19.70
2018-09-27T16:57:51.539Z,19.50
2018-09-27T17:00:19.704Z,19.20
2018-09-27T17:02:47.877Z,18.90
2018-09-27T17:05:16.051Z,18.60
2018-09-27T17:07:45.204Z,18.40
2018-09-27T17:10:13.359Z,18.10
2018-09-27T17:12:41.591Z,18.10
2018-09-27T17:15:10.218Z,17.90
2018-09-27T17:17:39.247Z,17.80
2018-09-27T17:20:07.311Z,17.70
2018-09-27T17:22:35.536Z,17.20
2018-09-27T17:25:03.623Z,17.20
2018-09-27T17:27:31.796Z,17.10
2018-09-27T17:29:59.943Z,17.00
2018-09-27T17:32:28.112Z,16.80
2018-09-27T17:34:56.282Z,16.80
2018-09-27T17:37:24.490Z,16.60
2018-09-27T17:39:52.585Z,16.50
2018-09-27T17:42:20.761Z,16.30
2018-09-27T17:44:48.940Z,16.10
2018-09-27T17:47:17.105Z,16.00
2018-09-27T17:49:45.274Z,15.80
2018-09-27T17:52:13.420Z,15.70
2018-09-27T17:54:41.609Z,15.50
2018-09-27T17:57:09.822Z,15.40
2018-09-27T17:59:38.009Z,15.10
2018-09-27T18:02:06.209Z,15.00
2018-09-27T18:04:34.469Z,15.00
2018-09-27T18:07:02.646Z,14.90
2018-09-27T18:09:30.821Z,14.90
2018-09-27T18:11:58.989Z,14.80
2018-09-27T18:14:27.167Z,14.70
2018-09-27T18:16:55.323Z,14.70
2018-09-27T18:19:23.644Z,14.70
2018-09-27T18:21:51.822Z,14.60
2018-09-27T18:24:19.984Z,14.50
2018-09-27T18:26:48.136Z,14.50
2018-09-27T18:29:16.325Z,14.40
2018-09-27T18:31:44.566Z,14.40
2018-09-27T18:34:12.649Z,14.30
2018-09-27T18:36:40.814Z,14.20
2018-09-27T18:39:13.344Z,14.20
2018-09-27T18:41:41.928Z,14.10
2018-09-27T18:44:10.248Z,14.00
2018-09-27T18:46:38.692Z,13.80
2018-09-27T18:49:07.170Z,13.80
2018-09-27T18:51:35.532Z,13.70
2018-09-27T18:54:03.713Z,13.70
2018-09-27T18:56:31.884Z,13.70
2018-09-27T18:59:00.206Z,13.60
2018-09-27T19:01:30.749Z,13.60
2018-09-27T19:03:59.007Z,13.70
2018-09-27T19:06:27.169Z,13.80
2018-09-27T19:08:55.313Z,13.80
2018-09-27T19:11:23.486Z,13.80
2018-09-27T19:13:51.641Z,13.70
2018-09-27T19:16:19.810Z,13.50
2018-09-27T19:18:48.026Z,13.50
2018-09-27T19:21:16.195Z,13.30
2018-09-27T19:23:44.342Z,13.20
2018-09-27T19:26:12.529Z,13.10
2018-09-27T19:28:40.681Z,13.00
2018-09-27T19:31:08.865Z,13.00
2018-09-27T19:33:37.130Z,12.90
2018-09-27T19:36:05.285Z,12.80
2018-09-27T19:38:33.491Z,12.80
2018-09-27T19:41:01.665Z,12.80
2018-09-27T19:43:30.657Z,12.80
2018-09-27T19:45:58.847Z,12.70
2018-09-27T19:48:27.013Z,12.70
2018-09-27T19:50:55.168Z,12.30
2018-09-27T19:53:23.360Z,12.20
2018-09-27T19:55:51.534Z,12.00
2018-09-27T19:58:19.764Z,11.90
2018-09-27T20:00:47.878Z,11.80
2018-09-27T20:03:16.053Z,11.80
2018-09-27T20:05:44.260Z,11.80
2018-09-27T20:08:12.405Z,11.80
2018-09-27T20:10:40.623Z,11.70
2018-09-27T20:13:08.738Z,11.70
2018-09-27T20:15:36.905Z,11.60
2018-09-27T20:18:05.059Z,11.50
2018-09-27T20:20:33.289Z,11.50
2018-09-27T20:23:01.508Z,11.40
2018-09-27T20:25:29.646Z,11.30
2018-09-27T20:27:57.938Z,11.40
2018-09-27T20:30:26.052Z,11.30
2018-09-27T20:32:54.203Z,11.30
2018-09-27T20:35:22.373Z,11.30
2018-09-27T20:37:50.537Z,11.30
2018-09-27T20:40:18.721Z,11.30
2018-09-27T20:42:46.892Z,11.30
2018-09-27T20:45:15.065Z,11.40
2018-09-27T20:47:43.501Z,11.60
2018-09-27T20:50:11.633Z,11.60
2018-09-27T20:52:39.794Z,11.50
2018-09-27T20:55:07.984Z,11.50
2018-09-27T20:57:36.150Z,11.40
2018-09-27T21:00:04.485Z,11.30
2018-09-27T21:02:32.672Z,11.20
2018-09-27T21:05:00.845Z,11.20
2018-09-27T21:07:29.018Z,11.20
2018-09-27T21:09:57.181Z,11.10
2018-09-27T21:12:25.584Z,11.10
2018-09-27T21:14:53.736Z,11.10
2018-09-27T21:17:21.897Z,11.00
2018-09-27T21:19:50.119Z,11.10
2018-09-27T21:22:18.448Z,11.10
2018-09-27T21:24:46.649Z,11.00
2018-09-27T21:27:14.798Z,11.00
2018-09-27T21:29:42.982Z,10.90
2018-09-27T21:32:11.162Z,10.90
2018-09-27T21:34:39.338Z,10.80
2018-09-27T21:37:07.524Z,10.80
2018-09-27T21:39:35.693Z,10.80
2018-09-27T21:42:03.860Z,10.80
2018-09-27T21:44:31.985Z,10.60
2018-09-27T21:47:00.154Z,10.60
2018-09-27T21:49:28.297Z,10.50
2018-09-27T21:51:56.459Z,10.60
2018-09-27T21:54:24.609Z,10.60
2018-09-27T21:56:52.777Z,10.50
2018-09-27T21:59:20.893Z,10.50
2018-09-27T22:01:49.053Z,10.50
2018-09-27T22:04:17.214Z,10.40
2018-09-27T22:06:46.515Z,10.40
2018-09-27T22:09:14.681Z,10.40
2018-09-27T22:11:42.841Z,10.30
2018-09-27T22:14:10.977Z,10.40
2018-09-27T22:16:39.132Z,10.40
2018-09-27T22:19:07.323Z,10.30
2018-09-27T22:21:35.468Z,10.30
2018-09-27T22:24:03.652Z,10.20
2018-09-27T22:26:31.789Z,10.20
2018-09-27T22:28:59.955Z,10.10
2018-09-27T22:31:28.090Z,10.20
2018-09-27T22:33:56.517Z,10.10
2018-09-27T22:36:24.759Z,10.10
2018-09-27T22:38:53.002Z,10.00
2018-09-27T22:41:21.166Z,9.90
2018-09-27T22:43:49.392Z,9.90
2018-09-27T22:46:17.572Z,9.80
2018-09-27T22:48:45.715Z,9.80
2018-09-27T22:51:13.844Z,9.80
2018-09-27T22:53:41.999Z,10.00
2018-09-27T22:56:10.151Z,10.10
2018-09-27T22:58:38.313Z,10.10
2018-09-27T23:01:06.462Z,10.00
2018-09-27T23:03:34.598Z,10.00
2018-09-27T23:06:02.741Z,10.00
2018-09-27T23:08:30.886Z,10.00
2018-09-27T23:10:59.041Z,10.10
2018-09-27T23:13:27.211Z,10.20
2018-09-27T23:15:55.364Z,10.20
2018-09-27T23:18:23.534Z,10.20
2018-09-27T23:20:51.685Z,10.20
2018-09-27T23:23:19.881Z,10.20
2018-09-27T23:25:48.032Z,10.10
2018-09-27T23:28:16.204Z,10.20
2018-09-27T23:30:44.384Z,10.10
2018-09-27T23:33:12.546Z,10.10
2018-09-27T23:35:40.747Z,10.00
2018-09-27T23:38:08.904Z,10.10
2018-09-27T23:40:37.072Z,10.00
2018-09-27T23:43:05.241Z,10.00
2018-09-27T23:45:33.377Z,10.00
2018-09-27T23:48:01.566Z,10.00
2018-09-27T23:50:29.721Z,10.00
2018-09-27T23:52:57.916Z,10.00
2018-09-27T23:55:26.064Z,10.00
2018-09-27T23:57:54.233Z,9.90
